Time;durP1;ratioP1;P1;durP2;ratioP2;P2;SDS_P1;SDS_P2;PMS_P1;PMS_P2;Temp;Humidity;BMP_temperature;BMP_pressure;BME280_temperature;BME280_humidity;BME280_pressure;Samples;Min_cycle;Max_cycle;Signal;HPM_P1;HPM_P2
2022/05/29 00:02:02;;;;;;;6.03;2.10;;;;;;;12.86;62.80;99982.02;1790288;80;21127;-72
2022/05/29 00:04:31;;;;;;;5.15;2.20;;;;;;;12.86;62.81;99982.55;1790175;80;21167;-70
2022/05/29 00:07:03;;;;;;;3.77;1.70;;;;;;;12.85;62.78;99983.09;1790204;80;21116;-72
2022/05/29 00:09:42;;;;;;;3.80;1.82;;;;;;;12.84;62.74;99987.43;1790180;80;21120;-71
2022/05/29 00:12:12;;;;;;;4.70;1.70;;;;;;;12.86;62.67;99995.77;1790254;80;21127;-70
2022/05/29 00:14:44;;;;;;;3.77;1.52;;;;;;;12.88;62.56;99994.17;1790427;80;21198;-71
2022/05/29 00:17:13;;;;;;;4.87;1.67;;;;;;;12.87;62.50;99997.45;1790420;80;21112;-71
2022/05/29 00:19:43;;;;;;;3.08;1.57;;;;;;;12.88;62.51;99995.02;1790199;80;21612;-71
2022/05/29 00:22:17;;;;;;;3.70;1.57;;;;;;;12.88;62.93;99990.05;1790203;80;21747;-70
2022/05/29 00:24:46;;;;;;;2.72;1.45;;;;;;;12.89;62.97;99990.36;1790117;80;21155;-71
2022/05/29 00:27:17;;;;;;;3.05;1.50;;;;;;;12.90;62.69;99981.05;1790207;80;21163;-70
2022/05/29 00:29:47;;;;;;;2.65;1.40;;;;;;;12.92;62.54;99974.25;1790372;80;21115;-70
2022/05/29 00:32:17;;;;;;;4.17;1.42;;;;;;;12.96;62.50;99982.90;1790333;80;21190;-70
2022/05/29 00:34:47;;;;;;;3.87;1.62;;;;;;;12.97;62.50;99981.30;1790390;80;21543;-70
2022/05/29 00:37:16;;;;;;;2.35;1.50;;;;;;;12.99;62.72;99979.17;1790436;80;21151;-71
2022/05/29 00:39:47;;;;;;;2.17;1.37;;;;;;;12.98;62.60;99971.98;1790104;80;21112;-70
2022/05/29 00:42:17;;;;;;;3.85;1.40;;;;;;;12.97;62.46;99983.20;1790021;80;21571;-71
2022/05/29 00:44:47;;;;;;;3.12;1.50;;;;;;;12.97;62.43;99982.67;1790220;80;21159;-72
2022/05/29 00:47:19;;;;;;;2.60;1.27;;;;;;;12.96;62.47;99979.61;1790155;80;21159;-71
2022/05/29 00:49:50;;;;;;;3.77;1.65;;;;;;;12.96;62.56;99978.23;1790177;80;21159;-71
2022/05/29 00:52:23;;;;;;;3.87;1.70;;;;;;;12.97;62.70;99990.92;1790169;80;21112;-70
2022/05/29 00:54:59;;;;;;;3.80;1.62;;;;;;;12.97;62.78;99983.20;1790282;80;21183;-71
2022/05/29 00:57:33;;;;;;;3.42;1.40;;;;;;;12.95;62.78;99980.68;1790568;80;21131;-70
2022/05/29 01:00:20;;;;;;;2.92;1.77;;;;;;;12.95;62.81;99988.93;1790249;80;21087;-71
2022/05/29 01:02:50;;;;;;;4.70;1.67;;;;;;;12.95;62.83;99999.93;1790265;80;21605;-70
2022/05/29 01:05:19;;;;;;;3.10;1.77;;;;;;;12.94;62.95;99998.78;1790427;80;21157;-72
2022/05/29 01:08:03;;;;;;;5.22;2.02;;;;;;;12.94;62.93;100007.88;1790205;80;21527;-71
2022/05/29 01:10:59;;;;;;;3.60;1.80;;;;;;;12.94;63.00;100014.75;1790281;80;21119;-71
2022/05/29 01:13:58;;;;;;;4.03;1.62;;;;;;;12.94;62.98;99999.63;1790535;80;21191;-70
2022/05/29 01:16:47;;;;;;;2.80;1.70;;;;;;;12.94;62.77;100002.91;1790150;80;21535;-72
2022/05/29 01:19:56;;;;;;;2.00;1.40;;;;;;;12.96;62.61;100004.90;1790349;80;21167;-71
2022/05/29 01:23:10;;;;;;;6.75;1.80;;;;;;;12.93;62.37;99997.09;1790444;80;21144;-70
2022/05/29 01:26:04;;;;;;;4.15;1.32;;;;;;;12.90;61.89;99990.13;1692290;85;21174;-71
2022/05/29 01:29:02;;;;;;;2.15;1.32;;;;;;;12.90;62.19;99998.38;1829685;77;22596;-70
2022/05/29 01:31:43;;;;;;;3.40;1.67;;;;;;;12.84;62.30;100008.89;1788882;80;21192;-71
2022/05/29 01:34:20;;;;;;;2.60;1.55;;;;;;;12.85;62.38;100014.70;1788591;80;21171;-71
2022/05/29 01:37:19;;;;;;;3.35;1.50;;;;;;;12.86;62.33;100012.27;1788834;80;21148;-70
2022/05/29 01:40:15;;;;;;;2.50;1.25;;;;;;;12.89;62.24;100016.48;1788740;80;21138;-69
2022/05/29 01:43:02;;;;;;;2.42;1.35;;;;;;;12.90;61.97;100019.00;1741294;82;21154;-70
2022/05/29 01:45:54;;;;;;;3.05;1.20;;;;;;;12.89;61.89;100020.60;1740214;82;21139;-71
2022/05/29 01:48:49;;;;;;;3.02;1.47;;;;;;;12.86;61.84;100026.02;1724214;83;21126;-73
2022/05/29 01:51:22;;;;;;;3.05;1.50;;;;;;;12.84;61.79;100030.89;1740074;82;21096;-74
2022/05/29 01:54:12;;;;;;;4.10;1.50;;;;;;;12.80;61.90;100035.15;1724334;83;21161;-70
2022/05/29 01:56:48;;;;;;;3.52;1.70;;;;;;;12.77;62.09;100030.63;1740042;82;21159;-71
2022/05/29 01:59:38;;;;;;;2.72;1.60;;;;;;;12.72;62.11;100029.91;1691184;83;21525;-70
2022/05/29 02:02:10;;;;;;;2.90;1.60;;;;;;;12.69;62.14;100022.95;1739891;82;21169;-72
2022/05/29 02:04:44;;;;;;;4.85;1.50;;;;;;;12.70;62.10;100022.42;1724150;83;21153;-71
2022/05/29 02:10:13;;;;;;;2.83;1.45;;;;;;;12.71;62.16;100028.23;1724285;83;21130;-72
2022/05/29 02:12:48;;;;;;;3.35;1.32;;;;;;;12.72;62.78;100031.28;1740175;82;21127;-69
2022/05/29 02:15:22;;;;;;;3.50;1.35;;;;;;;12.72;63.16;100033.19;1724211;82;21169;-70
2022/05/29 02:17:54;;;;;;;4.47;1.60;;;;;;;12.69;62.62;100037.23;1739724;82;21162;-71
2022/05/29 02:20:33;;;;;;;3.02;1.32;;;;;;;12.65;62.34;100040.95;1723969;83;21118;-68
2022/05/29 02:23:10;;;;;;;2.65;1.35;;;;;;;12.64;62.06;100048.04;1713015;82;21566;-70
2022/05/29 02:25:41;;;;;;;6.65;1.55;;;;;;;12.62;61.95;100050.16;1724094;83;21153;-71
2022/05/29 02:28:14;;;;;;;3.12;1.10;;;;;;;12.61;61.65;100047.11;1733115;82;21158;-70
2022/05/29 02:31:16;;;;;;;3.47;1.37;;;;;;;12.60;61.57;100044.89;1716764;83;21110;-71
2022/05/29 02:34:11;;;;;;;2.15;0.95;;;;;;;12.56;62.02;100066.16;1783376;80;21190;-71
2022/05/29 02:37:05;;;;;;;1.57;0.95;;;;;;;12.55;62.65;100053.48;1783191;80;21198;-69
2022/05/29 02:39:45;;;;;;;1.77;1.25;;;;;;;12.57;63.17;100059.59;1782897;80;21155;-72
2022/05/29 02:42:35;;;;;;;2.25;1.20;;;;;;;12.59;63.39;100065.72;1782799;80;21186;-72
2022/05/29 02:45:21;;;;;;;3.20;1.20;;;;;;;12.60;63.40;100060.53;1782723;79;21143;-71
2022/05/29 02:48:16;;;;;;;2.47;1.52;;;;;;;12.60;63.00;100050.91;1783139;80;21087;-67
2022/05/29 02:50:59;;;;;;;4.08;1.52;;;;;;;12.58;62.72;100047.55;1773095;80;21095;-70
2022/05/29 02:53:28;;;;;;;3.15;1.35;;;;;;;12.54;62.70;100067.75;1780361;80;21170;-70
2022/05/29 02:55:56;;;;;;;2.33;1.20;;;;;;;12.51;62.91;100057.73;1782781;80;21099;-69
2022/05/29 02:58:27;;;;;;;2.17;1.25;;;;;;;12.46;62.84;100067.16;1763507;80;21087;-70
2022/05/29 03:01:18;;;;;;;1.37;1.02;;;;;;;12.40;62.65;100048.80;1763270;80;21178;-70
2022/05/29 03:04:21;;;;;;;3.12;0.90;;;;;;;12.39;62.81;100050.70;1782762;80;21146;-69
2022/05/29 03:07:06;;;;;;;1.67;0.93;;;;;;;12.36;63.01;100049.23;1782780;80;21230;-69
2022/05/29 03:09:46;;;;;;;1.17;0.90;;;;;;;12.34;63.21;100059.56;1782733;80;21115;-69
2022/05/29 03:12:59;;;;;;;2.30;0.70;;;;;;;12.34;63.22;100052.70;1782698;79;21119;-69
2022/05/29 03:15:53;;;;;;;1.80;0.90;;;;;;;12.37;63.60;100045.95;1782697;80;21111;-69
2022/05/29 03:18:58;;;;;;;2.70;1.00;;;;;;;12.38;64.22;100038.03;1782656;80;21589;-73
2022/05/29 03:21:32;;;;;;;3.27;1.00;;;;;;;12.39;64.64;100041.09;1782727;80;21079;-70
2022/05/29 03:24:21;;;;;;;1.72;0.98;;;;;;;12.36;64.66;100034.13;1782912;80;21119;-71
2022/05/29 03:27:33;;;;;;;2.20;1.00;;;;;;;12.34;64.66;100034.00;1729547;82;21095;-69
2022/05/29 03:30:13;;;;;;;1.47;0.93;;;;;;;12.30;64.53;100048.70;1782752;80;21550;-70
2022/05/29 03:32:43;;;;;;;3.10;0.90;;;;;;;12.30;64.95;100050.07;1782838;79;21598;-70
2022/05/29 03:35:26;;;;;;;2.08;0.80;;;;;;;12.28;64.86;100056.31;1782785;80;21589;-70
2022/05/29 03:37:57;;;;;;;1.80;1.20;;;;;;;12.29;64.63;100062.12;1782768;79;21149;-71
2022/05/29 03:40:29;;;;;;;4.12;1.45;;;;;;;12.29;64.68;100060.75;1782695;80;21134;-70
2022/05/29 03:42:57;;;;;;;2.27;1.17;;;;;;;12.31;64.43;100059.16;1782906;79;21726;-70
2022/05/29 03:45:26;;;;;;;1.87;1.22;;;;;;;12.32;64.13;100058.94;1782684;80;21126;-71
2022/05/29 03:47:57;;;;;;;4.80;1.42;;;;;;;12.36;64.04;100067.63;1782732;80;21110;-71
2022/05/29 03:50:29;;;;;;;1.37;1.22;;;;;;;12.44;63.93;100074.78;1782656;80;21092;-69
2022/05/29 03:53:00;;;;;;;1.80;1.00;;;;;;;12.45;63.98;100069.59;1782705;80;21551;-70
2022/05/29 03:55:29;;;;;;;2.15;1.00;;;;;;;12.48;63.91;100085.64;1782703;80;21519;-70
2022/05/29 03:57:58;;;;;;;2.05;0.90;;;;;;;12.51;63.86;100081.09;1782706;80;21158;-69
2022/05/29 04:00:28;;;;;;;2.60;1.00;;;;;;;12.56;63.87;100088.14;1783012;79;21615;-70
2022/05/29 04:02:56;;;;;;;2.85;0.88;;;;;;;12.60;63.94;100096.27;1782685;80;21158;-71
2022/05/29 04:05:26;;;;;;;1.42;0.80;;;;;;;12.62;63.50;100090.02;1763249;80;21111;-69
2022/05/29 04:13:17;;;;;;;2.10;0.95;;;;;;;12.70;63.30;100103.52;1782903;80;21554;-70
2022/05/29 04:15:46;;;;;;;1.02;0.72;;;;;;;12.76;63.30;100102.63;1763597;80;21541;-68
2022/05/29 04:18:18;;;;;;;2.08;0.90;;;;;;;12.80;63.24;100110.75;1782745;80;21089;-69
2022/05/29 04:20:53;;;;;;;3.08;0.82;;;;;;;12.86;63.02;100098.88;1782796;80;21096;-71
2022/05/29 04:23:21;;;;;;;1.77;0.82;;;;;;;12.94;62.93;100099.99;1782977;80;21107;-70
2022/05/29 04:25:51;;;;;;;2.85;1.10;;;;;;;13.03;62.65;100089.61;1782779;80;21155;-69
2022/05/29 04:28:21;;;;;;;4.47;1.57;;;;;;;13.10;61.90;100093.69;1785277;80;21597;-70
2022/05/29 04:30:51;;;;;;;2.15;1.02;;;;;;;13.15;61.29;100106.25;1788448;80;21146;-71
2022/05/29 04:33:22;;;;;;;2.62;0.93;;;;;;;13.19;61.43;100104.23;1788170;80;21111;-70
2022/05/29 04:35:52;;;;;;;2.83;1.00;;;;;;;13.26;61.41;100109.69;1788204;80;21588;-71
2022/05/29 04:38:23;;;;;;;2.10;1.30;;;;;;;13.35;60.99;100106.98;1788138;80;21581;-72
2022/05/29 04:40:52;;;;;;;1.95;1.10;;;;;;;13.41;60.39;100107.47;1770883;80;21162;-71
2022/05/29 04:43:21;;;;;;;2.65;1.02;;;;;;;13.44;59.92;100107.55;1788253;79;21111;-71
2022/05/29 04:45:55;;;;;;;1.90;1.00;;;;;;;13.50;59.69;100114.91;1788140;80;21577;-72
2022/05/29 04:48:26;;;;;;;3.17;1.17;;;;;;;13.52;59.57;100114.16;1788363;80;21164;-68
2022/05/29 04:50:59;;;;;;;4.33;1.20;;;;;;;13.50;59.69;100119.88;1788451;80;21506;-71
2022/05/29 04:53:29;;;;;;;2.70;1.00;;;;;;;13.56;59.67;100119.52;1788323;80;21174;-70
2022/05/29 04:55:58;;;;;;;2.85;0.98;;;;;;;13.63;59.62;100131.32;1788200;80;21131;-70
2022/05/29 04:58:28;;;;;;;2.45;1.00;;;;;;;13.72;59.58;100125.88;1788120;80;21107;-71
2022/05/29 05:01:00;;;;;;;3.12;1.17;;;;;;;13.78;58.33;100127.73;1788193;79;21139;-71
2022/05/29 05:03:29;;;;;;;2.27;1.00;;;;;;;13.78;57.94;100131.86;1788355;80;21708;-70
2022/05/29 05:05:58;;;;;;;3.20;1.10;;;;;;;13.80;57.86;100122.84;1788175;80;21146;-72
2022/05/29 05:08:27;;;;;;;2.65;0.90;;;;;;;13.84;57.66;100119.94;1788236;80;21111;-73
2022/05/29 05:10:57;;;;;;;2.12;0.88;;;;;;;13.86;57.37;100123.31;1770997;80;21598;-72
2022/05/29 05:13:27;;;;;;;8.33;1.45;;;;;;;13.89;57.15;100126.14;1788307;80;21146;-71
2022/05/29 05:16:01;;;;;;;3.05;1.20;;;;;;;13.93;57.31;100124.63;1788589;80;21095;-70
2022/05/29 05:18:30;;;;;;;2.10;1.10;;;;;;;13.98;57.52;100133.05;1788175;80;21130;-71
2022/05/29 05:21:02;;;;;;;2.75;1.17;;;;;;;13.98;57.42;100128.08;1788158;80;21542;-70
2022/05/29 05:23:31;;;;;;;3.00;1.07;;;;;;;14.02;57.43;100126.02;1796264;80;21181;-71
2022/05/29 05:26:00;;;;;;;5.45;1.35;;;;;;;14.18;57.38;100131.48;1788193;80;21146;-72
2022/05/29 05:28:29;;;;;;;1.50;0.80;;;;;;;14.40;56.81;100129.99;1788147;80;21123;-71
2022/05/29 05:30:58;;;;;;;1.85;1.00;;;;;;;14.66;56.39;100132.16;1788313;80;21158;-71
2022/05/29 05:33:29;;;;;;;3.20;1.12;;;;;;;14.97;55.68;100136.13;1788141;80;21150;-70
2022/05/29 05:36:01;;;;;;;1.98;0.80;;;;;;;15.33;54.72;100130.20;1788332;80;21134;-71
2022/05/29 05:38:31;;;;;;;2.95;0.95;;;;;;;15.64;52.38;100130.52;1788242;80;21162;-69
2022/05/29 05:41:02;;;;;;;2.17;0.90;;;;;;;15.88;51.84;100133.62;1788431;80;21252;-69
2022/05/29 05:43:31;;;;;;;2.22;1.00;;;;;;;16.16;50.56;100129.59;1788507;80;21155;-68
2022/05/29 05:46:01;;;;;;;1.45;0.85;;;;;;;16.48;49.44;100144.45;1788210;79;21154;-69
2022/05/29 05:48:30;;;;;;;2.20;1.20;;;;;;;16.77;48.85;100139.30;1788106;80;21163;-69
2022/05/29 05:50:59;;;;;;;1.80;1.00;;;;;;;17.13;48.53;100141.98;1770748;80;21122;-69
2022/05/29 05:53:28;;;;;;;1.70;1.07;;;;;;;17.49;47.06;100134.63;1788372;80;21087;-68
2022/05/29 05:55:59;;;;;;;2.42;1.70;;;;;;;17.79;45.79;100133.55;1787869;80;21681;-68
2022/05/29 05:58:30;;;;;;;1.82;0.90;;;;;;;17.91;44.85;100132.91;1788285;80;21194;-70
2022/05/29 06:01:09;;;;;;;3.47;0.85;;;;;;;18.04;44.46;100133.41;1771130;79;21146;-68
2022/05/29 06:03:38;;;;;;;6.17;1.60;;;;;;;18.14;44.22;100124.95;1772082;80;21178;-69
2022/05/29 06:06:06;;;;;;;3.72;1.10;;;;;;;18.28;43.97;100130.47;1788213;80;21142;-68
2022/05/29 06:08:36;;;;;;;1.62;1.00;;;;;;;18.50;43.16;100139.66;1788289;80;21127;-67
2022/05/29 06:11:04;;;;;;;3.05;1.10;;;;;;;18.76;42.52;100135.33;1788112;80;21601;-69
2022/05/29 06:13:35;;;;;;;3.35;1.10;;;;;;;18.94;40.94;100132.25;1771002;80;21581;-69
2022/05/29 06:16:05;;;;;;;1.82;0.90;;;;;;;18.94;41.05;100134.19;1771022;80;21573;-70
2022/05/29 06:18:34;;;;;;;2.55;0.98;;;;;;;19.03;41.36;100129.02;1788296;80;21146;-68
2022/05/29 06:21:07;;;;;;;5.80;1.15;;;;;;;19.24;41.14;100122.59;1788505;79;21598;-69
2022/05/29 06:23:38;;;;;;;3.58;1.00;;;;;;;19.54;40.43;100128.52;1770658;80;21131;-68
2022/05/29 06:26:09;;;;;;;1.80;0.95;;;;;;;19.82;40.56;100128.77;1788293;80;21534;-68
2022/05/29 06:28:39;;;;;;;4.80;1.40;;;;;;;20.13;39.70;100135.40;1788158;80;21115;-69
2022/05/29 06:31:11;;;;;;;2.20;1.20;;;;;;;20.35;39.19;100132.52;1757438;80;21097;-69
2022/05/29 06:33:42;;;;;;;3.40;1.20;;;;;;;20.44;38.34;100134.27;1757199;82;21520;-68
2022/05/29 06:36:17;;;;;;;6.62;0.93;;;;;;;20.49;38.73;100142.09;1729920;82;21125;-68
2022/05/29 06:38:46;;;;;;;1.70;0.90;;;;;;;20.69;37.86;100150.27;1757421;82;21196;-70
2022/05/29 06:41:17;;;;;;;3.12;1.17;;;;;;;20.84;37.21;100145.65;1757204;82;21556;-69
2022/05/29 06:43:51;;;;;;;3.30;1.10;;;;;;;20.98;37.23;100140.97;1757208;82;21121;-68
2022/05/29 06:46:22;;;;;;;3.42;1.45;;;;;;;21.16;36.56;100144.09;1757151;80;21133;-69
2022/05/29 06:48:51;;;;;;;3.42;1.55;;;;;;;21.23;36.18;100151.39;1757030;82;21149;-69
2022/05/29 06:51:24;;;;;;;2.22;1.25;;;;;;;21.19;35.90;100139.37;1757177;82;21586;-70
2022/05/29 06:53:55;;;;;;;3.65;1.20;;;;;;;21.21;36.06;100144.11;1757460;82;21233;-69
2022/05/29 06:56:24;;;;;;;2.77;1.07;;;;;;;21.24;36.62;100146.94;1757130;82;21125;-69
2022/05/29 06:58:54;;;;;;;4.28;0.90;;;;;;;21.25;35.27;100147.77;1757120;82;21533;-70
2022/05/29 07:07:06;;;;;;;6.08;0.98;;;;;;;21.77;34.57;100149.85;1757041;82;21567;-71
2022/05/29 07:09:39;;;;;;;1.52;0.78;;;;;;;21.76;35.01;100143.99;1756877;81;21665;-66
2022/05/29 07:12:12;;;;;;;1.75;0.95;;;;;;;21.89;34.61;100147.34;1730981;82;21133;-69
2022/05/29 07:14:51;;;;;;;2.37;0.90;;;;;;;21.89;34.57;100138.42;1757381;82;21152;-69
2022/05/29 07:17:22;;;;;;;2.12;0.70;;;;;;;21.97;34.85;100145.39;1757337;82;21137;-69
2022/05/29 07:19:53;;;;;;;1.95;0.95;;;;;;;22.07;34.23;100144.02;1757173;82;21580;-70
2022/05/29 07:22:23;;;;;;;1.92;0.93;;;;;;;22.15;33.87;100151.87;1757364;80;21588;-70
2022/05/29 07:24:53;;;;;;;3.42;1.25;;;;;;;22.27;33.15;100150.17;1757192;82;21160;-69
2022/05/29 07:27:23;;;;;;;3.72;1.00;;;;;;;22.35;32.64;100151.00;1757201;82;21654;-69
2022/05/29 07:29:53;;;;;;;4.95;1.10;;;;;;;22.30;32.94;100147.66;1757243;80;21112;-68
2022/05/29 07:32:23;;;;;;;3.35;1.07;;;;;;;22.35;33.05;100142.07;1756868;80;21586;-68
2022/05/29 07:34:52;;;;;;;3.55;0.95;;;;;;;22.45;32.56;100146.23;1757579;82;21149;-70
2022/05/29 07:37:21;;;;;;;2.87;1.20;;;;;;;22.52;32.84;100152.08;1729830;82;21114;-70
2022/05/29 07:39:53;;;;;;;2.12;0.90;;;;;;;22.56;32.88;100142.86;1757416;80;21573;-70
2022/05/29 07:45:10;;;;;;;3.22;1.10;;;;;;;22.65;31.57;100157.91;1757151;80;21085;-69
2022/05/29 07:47:42;;;;;;;2.27;1.00;;;;;;;22.71;30.92;100153.15;1757124;82;21104;-69
2022/05/29 07:50:17;;;;;;;1.80;0.80;;;;;;;22.81;31.21;100154.58;1757196;80;21134;-68
2022/05/29 07:52:46;;;;;;;1.27;0.80;;;;;;;22.82;30.92;100150.66;1757020;82;21564;-68
2022/05/29 07:55:15;;;;;;;1.55;1.00;;;;;;;22.73;31.20;100158.73;1756979;82;21650;-69
2022/05/29 07:57:44;;;;;;;2.80;1.00;;;;;;;22.61;31.35;100148.99;1757438;82;21153;-65
2022/05/29 08:00:17;;;;;;;2.60;1.12;;;;;;;22.60;31.68;100150.95;1757223;82;21098;-65
2022/05/29 08:05:31;;;;;;;1.57;0.80;;;;;;;22.72;32.05;100152.03;1756953;82;21626;-68
2022/05/29 08:08:03;;;;;;;3.62;0.95;;;;;;;22.92;31.48;100160.41;1757228;80;21505;-72
2022/05/29 08:10:32;;;;;;;1.92;0.85;;;;;;;22.91;30.77;100148.95;1757152;82;21153;-71
2022/05/29 08:13:02;;;;;;;3.20;0.98;;;;;;;22.68;31.38;100158.74;1766283;80;21138;-74
2022/05/29 08:15:33;;;;;;;3.33;1.17;;;;;;;22.73;31.92;100157.33;1713099;83;21239;-74
2022/05/29 08:18:03;;;;;;;3.90;1.00;;;;;;;22.97;31.39;100160.38;1726236;83;21736;-74
2022/05/29 08:20:31;;;;;;;4.00;1.50;;;;;;;23.19;31.30;100157.20;1732413;82;21182;-73
2022/05/29 08:23:00;;;;;;;4.22;1.60;;;;;;;23.47;30.86;100162.67;1736266;82;21162;-72
2022/05/29 08:31:04;;;;;;;5.12;1.30;;;;;;;23.52;30.00;100169.64;1697339;84;21132;-67
2022/05/29 08:33:35;;;;;;;3.27;1.05;;;;;;;23.60;29.76;100169.62;1720199;82;21613;-69
2022/05/29 08:36:16;;;;;;;2.08;1.57;;;;;;;23.58;29.42;100170.47;1750090;82;21135;-72
2022/05/29 08:38:47;;;;;;;5.60;1.65;;;;;;;23.50;29.78;100168.25;1750397;82;21531;-72
2022/05/29 08:41:36;;;;;;;3.52;1.40;;;;;;;23.48;29.96;100175.53;1731160;82;21163;-72
2022/05/29 08:44:08;;;;;;;2.30;0.80;;;;;;;23.58;29.17;100179.70;1750064;81;21214;-73
2022/05/29 08:46:41;;;;;;;4.03;0.80;;;;;;;23.55;29.29;100177.48;1749983;80;21111;-72
2022/05/29 08:49:17;;;;;;;2.02;0.82;;;;;;;23.55;29.48;100180.84;1731148;82;21159;-65
2022/05/29 08:51:57;;;;;;;2.22;1.00;;;;;;;23.63;29.05;100169.88;1750072;82;21511;-73
2022/05/29 08:54:44;;;;;;;2.27;1.02;;;;;;;23.69;29.43;100175.70;1731385;82;21763;-71
2022/05/29 08:57:44;;;;;;;3.12;1.10;;;;;;;23.66;29.22;100167.06;1750060;82;21163;-72
2022/05/29 09:00:22;;;;;;;2.90;1.02;;;;;;;23.63;29.30;100158.69;1750115;82;21674;-73
2022/05/29 09:03:17;;;;;;;1.70;0.70;;;;;;;23.68;29.31;100161.45;1750590;80;21148;-74
2022/05/29 09:05:55;;;;;;;2.75;1.07;;;;;;;23.71;28.92;100160.03;1732668;82;21580;-75
2022/05/29 09:08:36;;;;;;;2.37;0.70;;;;;;;23.67;28.75;100170.97;1751890;80;21120;-72
2022/05/29 09:11:09;;;;;;;4.80;1.10;;;;;;;23.59;28.95;100165.98;1751656;82;21541;-74
2022/05/29 09:13:49;;;;;;;3.83;1.02;;;;;;;23.37;28.89;100163.54;1751554;80;21188;-76
2022/05/29 09:16:22;;;;;;;1.75;0.80;;;;;;;23.15;29.22;100169.25;1751585;82;21515;-73
2022/05/29 09:19:23;;;;;;;3.00;0.95;;;;;;;22.84;29.67;100160.99;1751770;80;21192;-63
2022/05/29 09:22:27;;;;;;;3.02;0.90;;;;;;;22.64;29.97;100155.41;1750061;81;21543;-64
2022/05/29 09:25:06;;;;;;;3.83;0.80;;;;;;;22.29;30.04;100163.30;1750216;82;21570;-62
2022/05/29 09:27:37;;;;;;;1.77;0.65;;;;;;;22.00;30.43;100165.76;1749960;82;21158;-63
2022/05/29 09:30:08;;;;;;;3.58;1.02;;;;;;;21.85;30.75;100156.83;1756782;81;21151;-63
2022/05/29 09:32:43;;;;;;;3.33;0.90;;;;;;;21.70;30.61;100174.39;1765629;81;21159;-64
2022/05/29 09:35:49;;;;;;;1.37;0.70;;;;;;;21.68;30.67;100168.80;1765704;80;21167;-63
2022/05/29 09:38:34;;;;;;;1.63;0.70;;;;;;;21.64;30.42;100169.08;1688161;85;21214;-62
2022/05/29 09:41:27;;;;;;;2.22;0.70;;;;;;;21.58;30.18;100178.55;1702652;84;21127;-64
2022/05/29 09:44:14;;;;;;;4.40;3.35;;;;;;;21.55;30.68;100172.97;1702369;84;21183;-63
2022/05/29 09:46:50;;;;;;;1.40;0.88;;;;;;;21.54;30.40;100173.25;1702483;84;21151;-64
2022/05/29 09:49:41;;;;;;;2.65;0.75;;;;;;;21.47;30.08;100165.14;1702772;84;21182;-62
2022/05/29 09:52:27;;;;;;;1.05;0.70;;;;;;;21.51;30.47;100171.84;1702652;84;21183;-68
2022/05/29 09:55:08;;;;;;;3.40;0.93;;;;;;;21.53;29.91;100168.22;1702332;84;21191;-64
2022/05/29 09:57:46;;;;;;;1.87;0.65;;;;;;;21.35;31.70;100158.95;1702730;84;21187;-67
2022/05/29 10:00:30;;;;;;;1.35;0.60;;;;;;;21.29;30.83;100162.28;1681651;85;21187;-67
2022/05/29 10:02:59;;;;;;;1.27;0.60;;;;;;;21.29;30.86;100158.09;1738249;81;21099;-66
2022/05/29 10:05:38;;;;;;;1.55;0.90;;;;;;;21.31;30.87;100166.19;1647379;85;21139;-62
2022/05/29 10:08:30;;;;;;;1.85;0.70;;;;;;;21.39;30.61;100164.26;1765562;81;21147;-67
2022/05/29 10:11:21;;;;;;;1.82;0.70;;;;;;;21.41;30.18;100169.00;1688350;85;21644;-65
2022/05/29 10:13:51;;;;;;;1.90;0.78;;;;;;;21.37;30.43;100166.48;1765652;81;21132;-68
2022/05/29 10:16:34;;;;;;;1.55;0.80;;;;;;;21.37;29.95;100164.53;1765695;81;21120;-67
2022/05/29 10:19:06;;;;;;;2.27;1.10;;;;;;;21.40;30.57;100168.72;1765638;81;21163;-67
2022/05/29 10:21:45;;;;;;;1.42;0.70;;;;;;;21.44;29.79;100168.45;1737074;81;21575;-68
2022/05/29 10:24:41;;;;;;;5.17;0.98;;;;;;;21.43;29.60;100169.01;1737201;81;21490;-67
2022/05/29 10:27:31;;;;;;;1.15;0.82;;;;;;;21.42;29.47;100179.87;1766016;81;21508;-67
2022/05/29 10:30:12;;;;;;;1.85;0.70;;;;;;;21.38;29.75;100170.94;1767476;81;21139;-66
2022/05/29 10:32:42;;;;;;;1.02;0.53;;;;;;;21.30;29.41;100160.33;1706579;84;21557;-66
2022/05/29 10:35:30;;;;;;;1.05;0.60;;;;;;;21.32;29.53;100164.52;1772841;81;21162;-68
2022/05/29 10:38:24;;;;;;;0.80;0.60;;;;;;;21.42;29.36;100162.31;1772757;81;21167;-65
2022/05/29 10:40:56;;;;;;;3.02;0.80;;;;;;;21.38;29.21;100162.58;1773037;81;21170;-67
2022/05/29 10:43:54;;;;;;;4.25;0.80;;;;;;;21.32;28.81;100170.65;1699807;82;21222;-68
2022/05/29 10:46:29;;;;;;;1.90;0.78;;;;;;;21.28;29.35;100162.00;1758481;81;21391;-68
2022/05/29 10:49:25;;;;;;;0.85;0.70;;;;;;;21.30;28.85;100161.72;1702679;81;21113;-67
2022/05/29 10:52:37;;;;;;;2.25;0.85;;;;;;;21.26;28.50;100168.96;1743950;82;21143;-68
2022/05/29 10:55:17;;;;;;;1.20;0.65;;;;;;;21.15;29.02;100168.89;1743949;81;21108;-68
2022/05/29 10:58:21;;;;;;;1.32;0.57;;;;;;;21.16;28.70;100163.60;1701591;84;21119;-67
2022/05/29 11:03:17;;;;;;;3.70;0.60;;;;;;;21.14;28.38;100161.64;1701547;84;21579;-69
2022/05/29 11:04:01;;;;;;;2.08;0.70;;;;;;;21.15;28.49;100157.75;1696578;84;21155;-67
2022/05/29 11:06:41;;;;;;;2.15;0.88;;;;;;;21.13;29.33;100171.12;1701595;84;21146;-69
2022/05/29 11:09:36;;;;;;;0.53;0.53;;;;;;;21.20;29.47;100173.09;1654225;85;21713;-67
2022/05/29 11:12:30;;;;;;;1.15;0.60;;;;;;;21.30;29.20;100154.76;1624065;88;21202;-63
2022/05/29 11:15:11;;;;;;;1.62;0.60;;;;;;;21.31;28.80;100162.00;1628978;85;21142;-64
2022/05/29 11:17:56;;;;;;;1.05;0.65;;;;;;;21.26;29.25;100159.20;1648795;87;21643;-63
2022/05/29 11:20:57;;;;;;;1.35;0.72;;;;;;;21.28;29.14;100158.38;1652030;87;21103;-63
2022/05/29 11:23:38;;;;;;;1.40;0.60;;;;;;;21.32;29.05;100157.55;1651879;85;21617;-64
2022/05/29 11:26:42;;;;;;;1.30;0.60;;;;;;;21.26;28.90;100146.66;1651804;87;21174;-64
2022/05/29 11:30:01;;;;;;;2.83;0.80;;;;;;;21.22;29.19;100149.13;1652071;87;21310;-63
2022/05/29 11:32:51;;;;;;;3.15;0.60;;;;;;;21.27;29.19;100149.73;1651927;85;21260;-64
2022/05/29 11:35:51;;;;;;;1.42;0.55;;;;;;;21.26;29.59;100149.45;1652097;86;21170;-65
2022/05/29 11:38:46;;;;;;;2.87;0.70;;;;;;;21.25;28.34;100146.38;1651857;87;21555;-64
2022/05/29 11:41:32;;;;;;;1.85;0.68;;;;;;;21.22;28.52;100157.48;1651685;87;21171;-63
2022/05/29 11:44:25;;;;;;;0.57;0.50;;;;;;;21.28;28.24;100148.06;1731407;82;21154;-64
2022/05/29 11:53:08;;;;;;;0.95;0.50;;;;;;;21.15;27.31;100167.50;1774315;81;21155;-64
2022/05/29 11:55:40;;;;;;;0.80;0.60;;;;;;;21.09;26.95;100155.22;1774411;80;21174;-62
2022/05/29 11:58:45;;;;;;;3.62;0.82;;;;;;;21.10;27.44;100154.94;1774493;81;21124;-64
2022/05/29 12:01:27;;;;;;;1.37;0.82;;;;;;;21.09;28.13;100158.00;1774347;80;21088;-64
2022/05/29 12:04:11;;;;;;;4.50;1.00;;;;;;;21.15;27.92;100142.98;1774251;81;21551;-64
2022/05/29 12:06:57;;;;;;;2.52;1.02;;;;;;;21.21;27.75;100138.54;1774621;80;21116;-64
2022/05/29 12:09:43;;;;;;;8.25;1.50;;;;;;;21.20;27.57;100143.83;1774526;81;21175;-65
2022/05/29 12:12:18;;;;;;;0.95;0.60;;;;;;;21.12;27.96;100133.77;1774337;81;21519;-65
2022/05/29 12:15:00;;;;;;;2.05;0.53;;;;;;;21.18;28.24;100149.39;1774504;80;21112;-65
2022/05/29 12:17:34;;;;;;;2.75;0.80;;;;;;;21.24;27.77;100146.94;1774170;80;21539;-65
2022/05/29 12:20:20;;;;;;;2.58;0.60;;;;;;;21.30;27.52;100145.84;1774392;81;21629;-64
2022/05/29 12:22:57;;;;;;;3.20;0.80;;;;;;;21.31;27.18;100148.08;1774628;81;21119;-64
2022/05/29 12:25:36;;;;;;;1.47;0.60;;;;;;;21.29;26.96;100144.72;1763692;81;22109;-63
2022/05/29 12:28:12;;;;;;;1.20;0.70;;;;;;;21.29;27.55;100143.33;1763441;81;21158;-63
2022/05/29 12:30:46;;;;;;;0.90;0.65;;;;;;;21.28;27.87;100141.09;1778219;80;21205;-61
2022/05/29 12:33:16;;;;;;;1.92;0.70;;;;;;;21.16;27.61;100145.49;1787848;80;21534;-63
2022/05/29 12:36:32;;;;;;;1.52;0.60;;;;;;;21.01;27.87;100141.26;1788048;80;21147;-62
2022/05/29 12:39:12;;;;;;;3.45;0.80;;;;;;;20.98;28.34;100147.38;1788330;80;21716;-61
2022/05/29 12:41:58;;;;;;;2.15;0.68;;;;;;;21.05;28.89;100142.95;1770676;80;21115;-63
2022/05/29 12:44:56;;;;;;;0.98;0.70;;;;;;;21.14;28.53;100143.53;1787734;80;21534;-64
2022/05/29 12:47:36;;;;;;;1.32;0.70;;;;;;;21.19;28.19;100142.16;1788220;80;21543;-63
2022/05/29 12:50:40;;;;;;;2.77;0.70;;;;;;;21.21;28.00;100151.08;1774064;80;21396;-64